createdAt,value
2022-08-05T00:00:17.836Z,20.20
2022-08-05T00:02:50.582Z,20.20
2022-08-05T00:06:02.890Z,20.20
2022-08-05T00:08:19.837Z,20.20
2022-08-05T00:10:53.180Z,20.10
2022-08-05T00:13:20.149Z,20.10
2022-08-05T00:16:08.579Z,20.10
2022-08-05T00:18:37.964Z,20.00
2022-08-05T00:21:06.513Z,20.00
2022-08-05T00:23:45.643Z,19.90
2022-08-05T00:26:22.142Z,19.90
2022-08-05T00:28:49.517Z,19.90
2022-08-05T00:31:54.290Z,19.90
2022-08-05T00:34:54.547Z,19.90
2022-08-05T00:37:11.701Z,19.90
2022-08-05T00:39:44.455Z,19.90
2022-08-05T00:42:36.775Z,19.90
2022-08-05T00:45:08.576Z,19.90
2022-08-05T00:47:56.409Z,19.90
2022-08-05T00:50:25.775Z,19.90
2022-08-05T00:52:55.166Z,19.90
2022-08-05T00:55:23.046Z,19.90
2022-08-05T00:58:01.412Z,19.90
2022-08-05T01:00:32.046Z,19.90
2022-08-05T01:03:00.828Z,19.90
2022-08-05T01:05:27.993Z,19.90
2022-08-05T01:08:40.930Z,19.90
2022-08-05T01:10:59.680Z,19.90
2022-08-05T01:13:57.550Z,19.90
2022-08-05T01:16:39.135Z,19.90
2022-08-05T01:20:00.949Z,19.90
2022-08-05T01:22:41.601Z,19.90
2022-08-05T01:25:23.314Z,19.90
2022-08-05T01:28:22.350Z,19.90
2022-08-05T01:31:02.891Z,19.90
2022-08-05T01:33:36.133Z,19.90
2022-08-05T01:36:13.126Z,19.90
2022-08-05T01:38:48.299Z,19.90
2022-08-05T01:41:21.964Z,19.90
2022-08-05T01:43:51.234Z,19.90
2022-08-05T01:46:42.669Z,19.90
2022-08-05T01:49:24.313Z,19.90
2022-08-05T01:51:58.807Z,19.90
2022-08-05T01:54:34.428Z,19.90
2022-08-05T01:58:10.553Z,19.90
2022-08-05T02:00:06.067Z,19.80
2022-08-05T02:02:51.106Z,19.80
2022-08-05T02:05:25.727Z,19.80
2022-08-05T02:08:00.185Z,19.80
2022-08-05T02:10:35.256Z,19.70
2022-08-05T02:13:15.936Z,19.70
2022-08-05T02:16:04.251Z,19.60
2022-08-05T02:18:53.299Z,19.60
2022-08-05T02:21:26.536Z,19.60
2022-08-05T02:23:59.375Z,19.60
2022-08-05T02:26:34.039Z,19.60
2022-08-05T02:29:02.045Z,19.60
2022-08-05T02:31:34.897Z,19.50
2022-08-05T02:34:09.339Z,19.60
2022-08-05T02:36:42.703Z,19.60
2022-08-05T02:39:11.029Z,19.50
2022-08-05T02:41:57.626Z,19.50
2022-08-05T02:44:29.054Z,19.60
2022-08-05T02:47:00.193Z,19.50
2022-08-05T02:49:36.503Z,19.50
2022-08-05T02:52:29.487Z,19.50
2022-08-05T02:54:58.860Z,19.40
2022-08-05T02:58:12.294Z,19.40
2022-08-05T03:00:17.661Z,19.40
2022-08-05T03:02:47.745Z,19.40
2022-08-05T03:05:16.070Z,19.40
2022-08-05T03:08:06.594Z,19.40
2022-08-05T03:10:31.369Z,19.40
2022-08-05T03:15:24.656Z,19.40
2022-08-05T03:17:57.486Z,19.40
2022-08-05T03:20:25.378Z,19.40
2022-08-05T03:22:57.311Z,19.40
2022-08-05T03:25:32.442Z,19.40
2022-08-05T03:28:02.372Z,19.40
2022-08-05T03:30:34.602Z,19.30
2022-08-05T03:33:07.229Z,19.30
2022-08-05T03:35:40.471Z,19.30
2022-08-05T03:38:11.304Z,19.30
2022-08-05T03:40:47.287Z,19.30
2022-08-05T03:44:09.202Z,19.30
2022-08-05T03:46:04.913Z,19.30
2022-08-05T03:48:35.437Z,19.30
2022-08-05T03:52:39.332Z,19.30
2022-08-05T03:55:51.303Z,19.20
2022-08-05T03:57:44.458Z,19.20
2022-08-05T04:00:16.314Z,19.20
2022-08-05T04:02:57.697Z,19.20
2022-08-05T04:05:33.600Z,19.10
2022-08-05T04:08:29.706Z,19.10
2022-08-05T04:10:56.435Z,19.10
2022-08-05T04:13:25.550Z,19.00
2022-08-05T04:16:03.150Z,19.00
2022-08-05T04:18:34.417Z,18.90
2022-08-05T04:21:02.479Z,18.90
2022-08-05T04:24:05.322Z,18.90
2022-08-05T04:26:18.782Z,18.90
2022-08-05T04:28:51.122Z,18.90
2022-08-05T04:31:20.078Z,18.80
2022-08-05T04:34:18.905Z,18.80
2022-08-05T04:36:45.455Z,18.80
2022-08-05T04:39:13.703Z,18.70
2022-08-05T04:41:40.822Z,18.70
2022-08-05T04:44:09.462Z,18.70
2022-08-05T04:46:38.169Z,18.60
2022-08-05T04:49:12.333Z,18.60
2022-08-05T04:51:43.301Z,18.60
2022-08-05T04:54:10.575Z,18.50
2022-08-05T04:56:39.484Z,18.50
2022-08-05T04:59:17.439Z,18.50
2022-08-05T05:02:35.675Z,18.50
2022-08-05T05:04:38.178Z,18.40
2022-08-05T05:07:09.371Z,18.40
2022-08-05T05:09:37.396Z,18.40
2022-08-05T05:12:06.209Z,18.40
2022-08-05T05:14:33.360Z,18.40
2022-08-05T05:17:03.801Z,18.40
2022-08-05T05:19:36.611Z,18.40
2022-08-05T05:22:24.411Z,18.40
2022-08-05T05:25:00.164Z,18.40
2022-08-05T05:27:44.946Z,18.40
2022-08-05T05:30:29.783Z,18.40
2022-08-05T05:33:09.210Z,18.30
2022-08-05T05:35:45.887Z,18.30
2022-08-05T05:38:14.348Z,18.40
2022-08-05T05:40:50.039Z,18.30
2022-08-05T05:43:54.442Z,18.30
2022-08-05T05:46:16.326Z,18.40
2022-08-05T05:48:48.121Z,18.40
2022-08-05T05:51:23.317Z,18.40
2022-08-05T05:53:57.522Z,18.40
2022-08-05T05:56:32.271Z,18.40
2022-08-05T05:59:06.803Z,18.40
2022-08-05T06:01:39.416Z,18.40
2022-08-05T06:04:12.695Z,18.40
2022-08-05T06:06:42.827Z,18.40
2022-08-05T06:09:17.300Z,18.50
2022-08-05T06:12:01.130Z,18.50
2022-08-05T06:14:30.798Z,18.50
2022-08-05T06:16:58.442Z,18.60
2022-08-05T06:19:34.233Z,18.60
2022-08-05T06:22:06.470Z,18.60
2022-08-05T06:24:35.286Z,18.60
2022-08-05T06:27:03.897Z,18.70
2022-08-05T06:29:52.008Z,18.70
2022-08-05T06:32:26.385Z,18.70
2022-08-05T06:34:58.350Z,18.80
2022-08-05T06:37:52.250Z,18.80
2022-08-05T06:40:18.442Z,18.90
2022-08-05T06:42:52.083Z,18.90
2022-08-05T06:45:44.441Z,18.90
2022-08-05T06:48:44.358Z,19.00
2022-08-05T06:50:57.193Z,19.00
2022-08-05T06:53:28.425Z,19.10
2022-08-05T06:56:00.557Z,19.10
2022-08-05T06:58:29.873Z,19.20
2022-08-05T07:01:02.716Z,19.30
2022-08-05T07:03:32.894Z,19.30
2022-08-05T07:06:05.863Z,19.30
2022-08-05T07:08:43.113Z,19.40
2022-08-05T07:11:15.841Z,19.40
2022-08-05T07:14:02.528Z,19.40
2022-08-05T07:17:56.658Z,19.40
2022-08-05T07:20:16.806Z,19.50
2022-08-05T07:22:28.875Z,19.60
2022-08-05T07:25:23.720Z,19.60
2022-08-05T07:27:57.566Z,19.70
2022-08-05T07:30:31.993Z,19.80
2022-08-05T07:33:09.625Z,19.80
2022-08-05T07:36:03.736Z,19.90
2022-08-05T07:38:33.491Z,20.00
2022-08-05T07:42:06.830Z,20.00
2022-08-05T07:43:59.326Z,20.10
2022-08-05T07:46:28.180Z,20.20
2022-08-05T07:49:01.942Z,20.30
2022-08-05T07:51:36.625Z,20.40
2022-08-05T07:54:08.454Z,20.40
2022-08-05T07:57:00.002Z,20.50
2022-08-05T07:59:38.825Z,20.60
2022-08-05T08:02:16.959Z,20.70
2022-08-05T08:04:48.657Z,20.80
2022-08-05T08:07:22.078Z,20.90
2022-08-05T08:09:52.521Z,21.00
2022-08-05T08:12:36.994Z,21.20
2022-08-05T08:15:15.071Z,21.30
2022-08-05T08:17:50.577Z,21.40
2022-08-05T08:21:00.266Z,21.40
2022-08-05T08:24:00.045Z,21.50
2022-08-05T08:26:00.870Z,21.60
2022-08-05T08:28:36.259Z,21.80
2022-08-05T08:31:06.796Z,21.80
2022-08-05T08:33:38.103Z,21.90
2022-08-05T08:36:38.496Z,22.00
2022-08-05T08:38:59.050Z,22.20
2022-08-05T08:41:50.633Z,22.30
2022-08-05T08:45:22.447Z,22.40
2022-08-05T08:47:46.899Z,22.60
2022-08-05T08:50:22.218Z,22.70
2022-08-05T08:52:51.857Z,22.90
2022-08-05T08:56:01.924Z,22.90
2022-08-05T08:58:08.891Z,22.90
2022-08-05T09:00:36.329Z,23.10
2022-08-05T09:03:16.281Z,23.10
2022-08-05T09:06:07.797Z,23.20
2022-08-05T09:08:35.114Z,23.30
2022-08-05T09:11:07.722Z,23.40
2022-08-05T09:14:01.130Z,23.60
2022-08-05T09:16:23.398Z,23.60
2022-08-05T09:18:55.491Z,23.70
2022-08-05T09:22:23.624Z,23.90
2022-08-05T09:24:12.921Z,23.90
2022-08-05T09:26:46.325Z,24.00
2022-08-05T09:29:18.402Z,24.10
2022-08-05T09:32:41.210Z,24.20
2022-08-05T09:34:55.066Z,24.30
2022-08-05T09:38:16.288Z,24.40
2022-08-05T09:40:38.203Z,24.40
2022-08-05T09:43:08.389Z,24.50
2022-08-05T09:46:06.204Z,24.60
2022-08-05T09:48:26.982Z,24.70
2022-08-05T09:51:14.991Z,24.80
2022-08-05T09:53:54.544Z,24.90
2022-08-05T09:56:29.939Z,25.00
2022-08-05T09:59:04.352Z,25.20
2022-08-05T10:01:33.793Z,25.40
2022-08-05T10:04:12.404Z,25.40
2022-08-05T10:06:59.627Z,25.40
2022-08-05T10:09:29.561Z,25.40
2022-08-05T10:12:30.436Z,25.50
2022-08-05T10:15:25.705Z,25.50
2022-08-05T10:18:23.071Z,25.50
2022-08-05T10:21:15.698Z,25.60
2022-08-05T10:23:59.375Z,25.70
2022-08-05T10:26:32.565Z,25.70
2022-08-05T10:29:01.161Z,25.70
2022-08-05T10:32:53.685Z,25.80
2022-08-05T10:34:15.413Z,25.80
2022-08-05T10:36:44.447Z,25.80
2022-08-05T10:39:25.078Z,25.90
2022-08-05T10:42:11.816Z,25.90
2022-08-05T10:44:43.827Z,25.90
2022-08-05T10:47:26.014Z,25.90
2022-08-05T10:50:31.901Z,25.90
2022-08-05T10:53:01.133Z,26.00
2022-08-05T10:55:38.431Z,26.00
2022-08-05T10:58:11.364Z,25.90
2022-08-05T11:00:42.129Z,25.80
2022-08-05T11:03:24.700Z,25.70
2022-08-05T11:06:16.095Z,25.50
2022-08-05T11:09:32.344Z,25.50
2022-08-05T11:12:55.728Z,25.40
2022-08-05T11:15:59.414Z,25.50
2022-08-05T11:18:34.366Z,25.50
2022-08-05T11:21:11.179Z,25.60
2022-08-05T11:24:04.964Z,25.70
2022-08-05T11:26:40.551Z,25.70
2022-08-05T11:29:43.280Z,25.70
2022-08-05T11:32:27.932Z,25.70
2022-08-05T11:34:57.340Z,25.80
2022-08-05T11:38:29.634Z,25.80
2022-08-05T11:41:35.556Z,25.80
2022-08-05T11:44:06.291Z,25.80
2022-08-05T11:46:58.432Z,25.80
2022-08-05T11:49:33.763Z,25.70
2022-08-05T11:52:02.034Z,25.80
2022-08-05T11:54:40.666Z,25.90
2022-08-05T11:57:25.241Z,25.90
2022-08-05T11:59:54.523Z,25.90
2022-08-05T12:02:33.465Z,25.90
2022-08-05T12:05:06.954Z,25.80
2022-08-05T12:08:10.542Z,25.80
2022-08-05T12:10:43.710Z,25.70
2022-08-05T12:13:18.680Z,25.70
2022-08-05T12:16:14.378Z,25.60
2022-08-05T12:18:48.659Z,25.50
2022-08-05T12:21:30.258Z,25.40
2022-08-05T12:24:09.864Z,25.40
2022-08-05T12:26:40.928Z,25.40
2022-08-05T12:29:25.364Z,25.30
2022-08-05T12:31:57.904Z,25.20
2022-08-05T12:34:35.698Z,25.10
2022-08-05T12:37:21.613Z,25.10
2022-08-05T12:39:51.899Z,25.10
2022-08-05T12:42:21.697Z,25.30
2022-08-05T12:44:52.497Z,25.40
2022-08-05T12:47:30.571Z,25.50
2022-08-05T12:50:03.508Z,25.60
2022-08-05T12:52:39.125Z,25.80
2022-08-05T12:55:25.380Z,25.80
2022-08-05T12:58:49.373Z,25.90
2022-08-05T13:02:00.488Z,25.90
2022-08-05T13:03:41.616Z,26.00
2022-08-05T13:06:17.286Z,26.00
2022-08-05T13:08:51.942Z,25.90
2022-08-05T13:11:59.740Z,26.00
2022-08-05T13:14:25.038Z,26.10
2022-08-05T13:17:20.647Z,26.30
2022-08-05T13:20:01.198Z,26.30
2022-08-05T13:22:30.017Z,26.40
2022-08-05T13:25:00.804Z,26.40
2022-08-05T13:27:37.938Z,26.40
2022-08-05T13:30:33.920Z,26.50
2022-08-05T13:32:56.381Z,26.60
2022-08-05T13:35:31.318Z,26.80
2022-08-05T13:38:15.724Z,26.80
2022-08-05T13:40:55.693Z,26.90
2022-08-05T13:43:22.656Z,27.10
2022-08-05T13:45:50.868Z,27.20
2022-08-05T13:48:57.601Z,27.20
2022-08-05T13:51:09.613Z,27.30
2022-08-05T13:53:48.259Z,27.40
2022-08-05T13:56:18.190Z,27.40
2022-08-05T13:58:53.053Z,27.60
2022-08-05T14:01:27.442Z,27.70
2022-08-05T14:04:22.147Z,27.80
2022-08-05T14:06:58.644Z,27.90
2022-08-05T14:09:46.236Z,28.10
2022-08-05T14:12:17.624Z,28.20
2022-08-05T14:14:46.342Z,28.30
2022-08-05T14:17:16.882Z,28.40
2022-08-05T14:19:55.156Z,28.50
2022-08-05T14:34:12.062Z,28.60
2022-08-05T14:36:42.308Z,28.90
2022-08-05T14:39:15.729Z,28.80
2022-08-05T14:42:16.775Z,28.80
2022-08-05T14:44:37.546Z,28.80
2022-08-05T14:47:05.354Z,28.70
2022-08-05T14:49:59.693Z,28.70
2022-08-05T14:52:50.444Z,28.70
2022-08-05T14:55:13.895Z,28.70
2022-08-05T14:57:54.804Z,28.50
2022-08-05T15:00:27.918Z,28.50
2022-08-05T15:02:56.912Z,28.50
2022-08-05T15:05:29.967Z,28.50
2022-08-05T15:08:17.976Z,28.50
2022-08-05T15:11:01.487Z,28.40
2022-08-05T15:13:44.909Z,28.40
2022-08-05T15:16:13.780Z,28.30
2022-08-05T15:18:40.774Z,28.20
2022-08-05T15:21:08.764Z,28.20
2022-08-05T15:23:35.811Z,28.20
2022-08-05T15:26:05.148Z,28.20
2022-08-05T15:28:34.230Z,28.30
2022-08-05T15:31:03.570Z,28.30
2022-08-05T15:33:56.734Z,28.30
2022-08-05T15:36:24.435Z,28.30
2022-08-05T15:40:41.042Z,28.30
2022-08-05T15:41:57.398Z,28.30
2022-08-05T15:44:27.631Z,28.30
2022-08-05T15:46:55.757Z,28.30
2022-08-05T15:49:40.984Z,28.30
2022-08-05T15:52:16.222Z,28.30
2022-08-05T15:54:43.543Z,28.30
2022-08-05T15:57:11.260Z,28.30
2022-08-05T15:59:39.622Z,28.30
2022-08-05T16:02:09.663Z,28.20
2022-08-05T16:04:42.368Z,28.20
2022-08-05T16:07:10.755Z,28.10
2022-08-05T16:09:37.946Z,28.10
2022-08-05T16:12:09.321Z,28.00
2022-08-05T16:14:38.562Z,27.90
2022-08-05T16:17:05.614Z,27.80
2022-08-05T16:20:04.420Z,27.70
2022-08-05T16:22:24.355Z,27.60
2022-08-05T16:24:55.021Z,27.50
2022-08-05T16:27:46.923Z,27.40
2022-08-05T16:30:23.412Z,27.30
2022-08-05T16:32:54.107Z,27.30
2022-08-05T16:35:27.778Z,27.20
2022-08-05T16:38:15.524Z,27.10
2022-08-05T16:40:47.740Z,27.10
2022-08-05T16:43:19.344Z,26.90
2022-08-05T16:46:04.850Z,26.80
2022-08-05T16:48:35.510Z,26.80
2022-08-05T16:51:09.362Z,26.80
2022-08-05T16:54:04.955Z,26.70
2022-08-05T16:56:26.646Z,26.70
2022-08-05T16:58:54.338Z,26.50
2022-08-05T17:01:21.663Z,26.40
2022-08-05T17:03:52.077Z,26.40
2022-08-05T17:06:19.971Z,26.30
2022-08-05T17:08:52.146Z,26.10
2022-08-05T17:11:23.855Z,26.00
2022-08-05T17:14:00.516Z,25.90
2022-08-05T17:16:36.244Z,25.80
2022-08-05T17:19:09.595Z,25.60
2022-08-05T17:21:39.561Z,25.40
2022-08-05T17:24:18.649Z,25.30
2022-08-05T17:26:58.166Z,25.10
2022-08-05T17:29:33.502Z,24.90
2022-08-05T17:32:07.117Z,24.80
2022-08-05T17:34:35.488Z,24.60
2022-08-05T17:37:04.597Z,24.40
2022-08-05T17:39:51.172Z,24.30
2022-08-05T17:42:25.739Z,24.20
2022-08-05T17:44:56.010Z,24.00
2022-08-05T17:47:23.744Z,23.90
2022-08-05T17:50:03.635Z,23.70
2022-08-05T17:52:35.191Z,23.50
2022-08-05T17:55:21.720Z,23.30
2022-08-05T17:57:50.290Z,23.20
2022-08-05T18:00:18.545Z,23.00
2022-08-05T18:02:47.294Z,22.90
2022-08-05T18:05:17.042Z,22.80
2022-08-05T18:07:44.800Z,22.70
2022-08-05T18:10:14.076Z,22.60
2022-08-05T18:12:49.671Z,22.40
2022-08-05T18:15:16.771Z,22.40
2022-08-05T18:18:00.596Z,22.30
2022-08-05T18:20:32.395Z,22.10
2022-08-05T18:23:00.563Z,22.10
2022-08-05T18:25:36.279Z,22.00
2022-08-05T18:28:05.733Z,21.90
2022-08-05T18:30:39.171Z,21.90
2022-08-05T18:33:08.565Z,21.80
2022-08-05T18:36:00.553Z,21.70
2022-08-05T18:38:28.885Z,21.70
2022-08-05T18:41:55.689Z,21.60
2022-08-05T18:43:48.925Z,21.50
2022-08-05T18:46:19.741Z,21.50
2022-08-05T18:48:52.451Z,21.40
2022-08-05T18:52:05.877Z,21.40
2022-08-05T18:54:31.069Z,21.30
2022-08-05T18:57:01.047Z,21.20
2022-08-05T18:59:44.113Z,21.20
2022-08-05T19:02:27.446Z,21.20
2022-08-05T19:05:02.137Z,21.10
2022-08-05T19:07:48.281Z,21.00
2022-08-05T19:10:17.209Z,20.90
2022-08-05T19:12:46.121Z,20.90
2022-08-05T19:15:58.295Z,20.80
2022-08-05T19:18:10.132Z,20.80
2022-08-05T19:20:41.833Z,20.70
2022-08-05T19:24:03.271Z,20.60
2022-08-05T19:26:04.857Z,20.60
2022-08-05T19:28:35.510Z,20.50
2022-08-05T19:31:05.858Z,20.50
2022-08-05T19:33:36.804Z,20.50
2022-08-05T19:36:08.859Z,20.40
2022-08-05T19:38:36.672Z,20.40
2022-08-05T19:41:09.059Z,20.30
2022-08-05T19:44:06.793Z,20.20
2022-08-05T19:46:30.206Z,20.20
2022-08-05T19:49:04.130Z,20.10
2022-08-05T19:52:04.300Z,20.00
2022-08-05T19:54:28.409Z,19.90
2022-08-05T19:56:59.832Z,19.90
2022-08-05T20:00:02.098Z,19.80
2022-08-05T20:02:17.947Z,19.80
2022-08-05T20:04:45.837Z,19.70
2022-08-05T20:07:14.134Z,19.60
2022-08-05T20:09:54.818Z,19.50
2022-08-05T20:12:24.936Z,19.50
2022-08-05T20:14:53.232Z,19.40
2022-08-05T20:17:23.503Z,19.40
2022-08-05T20:19:56.705Z,19.30
2022-08-05T20:22:27.306Z,19.30
2022-08-05T20:24:55.939Z,19.20
2022-08-05T20:27:41.488Z,19.10
2022-08-05T20:30:10.398Z,19.10
2022-08-05T20:32:37.597Z,19.00
2022-08-05T20:35:12.640Z,18.90
2022-08-05T20:38:05.568Z,18.90
2022-08-05T20:40:30.286Z,18.90
2022-08-05T20:43:00.070Z,18.90
2022-08-05T20:45:55.831Z,18.80
2022-08-05T20:48:16.400Z,18.70
2022-08-05T20:50:45.419Z,18.60
2022-08-05T20:53:15.995Z,18.60
2022-08-05T20:56:08.459Z,18.60
2022-08-05T20:58:36.995Z,18.50
2022-08-05T21:01:04.793Z,18.40
2022-08-05T21:03:34.472Z,18.40
2022-08-05T21:06:02.193Z,18.40
2022-08-05T21:08:41.689Z,18.40
2022-08-05T21:11:12.533Z,18.30
2022-08-05T21:13:55.645Z,18.20
2022-08-05T21:16:29.476Z,18.20
2022-08-05T21:19:00.056Z,18.10
2022-08-05T21:21:39.717Z,18.00
2022-08-05T21:24:15.958Z,17.90
2022-08-05T21:26:47.177Z,17.90
2022-08-05T21:29:26.196Z,17.90
2022-08-05T21:31:54.257Z,17.80
2022-08-05T21:34:23.139Z,17.80
2022-08-05T21:36:51.375Z,17.70
2022-08-05T21:39:26.707Z,17.70
2022-08-05T21:42:01.947Z,17.70
2022-08-05T21:44:31.063Z,17.60
2022-08-05T21:46:59.851Z,17.50
2022-08-05T21:49:58.771Z,17.50
2022-08-05T21:52:22.106Z,17.40
2022-08-05T21:54:56.046Z,17.40
2022-08-05T21:57:32.304Z,17.40
2022-08-05T22:00:06.303Z,17.30
2022-08-05T22:02:41.758Z,17.30
2022-08-05T22:05:10.954Z,17.20
2022-08-05T22:07:39.757Z,17.20
2022-08-05T22:10:26.938Z,17.10
2022-08-05T22:12:57.246Z,17.10
2022-08-05T22:16:01.098Z,17.00
2022-08-05T22:18:14.521Z,17.00
2022-08-05T22:20:42.024Z,16.90
2022-08-05T22:24:01.815Z,16.90
2022-08-05T22:26:35.708Z,16.80
2022-08-05T22:29:03.808Z,16.80
2022-08-05T22:31:31.687Z,16.80
2022-08-05T22:34:20.027Z,16.70
2022-08-05T22:36:52.514Z,16.60
2022-08-05T22:39:21.469Z,16.60
2022-08-05T22:42:10.152Z,16.50
2022-08-05T22:44:35.754Z,16.50
2022-08-05T22:47:06.021Z,16.40
2022-08-05T22:50:19.446Z,16.40
2022-08-05T22:52:30.432Z,16.30
2022-08-05T22:55:01.768Z,16.30
2022-08-05T22:57:36.221Z,16.30
2022-08-05T23:00:07.876Z,16.20
2022-08-05T23:02:40.061Z,16.20
2022-08-05T23:05:15.700Z,16.10
2022-08-05T23:07:44.960Z,16.10
2022-08-05T23:10:13.124Z,16.00
2022-08-05T23:12:40.278Z,16.00
2022-08-05T23:15:10.791Z,16.00
2022-08-05T23:18:00.157Z,15.90
2022-08-05T23:20:26.331Z,15.90
2022-08-05T23:22:56.020Z,15.90
2022-08-05T23:25:51.504Z,15.80
2022-08-05T23:28:11.454Z,15.80
2022-08-05T23:30:39.626Z,15.70
2022-08-05T23:33:16.470Z,15.70
2022-08-05T23:35:51.124Z,15.60
2022-08-05T23:38:18.370Z,15.60
2022-08-05T23:40:50.116Z,15.50
2022-08-05T23:43:25.814Z,15.50
2022-08-05T23:46:20.983Z,15.40
2022-08-05T23:49:01.201Z,15.40
2022-08-05T23:51:55.435Z,15.40
2022-08-05T23:54:34.059Z,15.30
2022-08-05T23:57:04.741Z,15.30
